STN weather

London Stansted Airport
London, England, United Kingdom

Public forecast

Using degrees Celsius for public forecast. Weather courtesy of forecast.io.

METAR (pilot weather report)

Retrieved 2018/10/19 09:20 UTC (3 minutes ago):

EGSS 190920Z AUTO 33004KT 300V010 9999 NCD 09/08 Q1027

TAF (pilot weather forecast)

Retrieved 2018/10/19 06:00 UTC (3 hours ago):

TAF EGSS 190505Z 1906/2012 33003KT 6000 SCT035 TEMPO 1906/1909 0500 BCFG BKN001 BECMG 1908/1911 9999 BECMG 1920/1923 6000 TEMPO 1922/2010 3000 MIFG BR PROB40 2000/2009 0200 FG VV/// BECMG 2010/2012 9999